Time,TemperatureF,DewpointF,PressureIn,WindDirection,WindDirectionDegrees,WindSpeedMPH,WindSpeedGustMPH,Humidity,HourlyPrecipIn,Conditions,Clouds,dailyrainin,SolarRadiationWatts/m^2,SoftwareType,DateUTC
2013-04-04 00:00:00,28.3,17.3,30.36,SE,132,0.0,0.0,63,0.00,,,0.00,0,Wunderground v.1.15,2013-04-04 04:00:00,
2013-04-04 00:05:00,28.2,17.2,30.36,SE,132,0.0,0.0,63,0.00,,,0.00,0,Wunderground v.1.15,2013-04-04 04:05:00,
2013-04-04 00:15:00,28.3,16.6,30.37,SE,132,0.0,0.0,61,0.00,,,0.00,0,Wunderground v.1.15,2013-04-04 04:15:00,
2013-04-04 00:25:00,28.8,16.3,30.36,SE,132,0.0,0.0,59,0.00,,,0.00,0,Wunderground v.1.15,2013-04-04 04:25:00,
2013-04-04 00:30:00,28.9,16.4,30.36,SE,132,0.0,0.0,59,0.00,,,0.00,0,Wunderground v.1.15,2013-04-04 04:30:00,
2013-04-04 00:35:00,29.0,16.4,30.36,SE,132,0.0,0.0,59,0.00,,,0.00,0,Wunderground v.1.15,2013-04-04 04:35:00,
2013-04-04 00:40:00,29.0,16.4,30.36,SE,132,0.0,1.0,59,0.00,,,0.00,0,Wunderground v.1.15,2013-04-04 04:40:00,
2013-04-04 00:50:00,28.8,16.3,30.36,SE,132,0.0,0.0,59,0.00,,,0.00,0,Wunderground v.1.15,2013-04-04 04:50:00,
2013-04-04 01:00:00,28.8,16.3,30.37,East,91,0.0,6.0,59,0.00,,,0.00,0,Wunderground v.1.15,2013-04-04 05:00:00,
2013-04-04 01:10:00,28.5,16.0,30.36,SSE,156,2.0,2.0,59,0.00,,,0.00,0,Wunderground v.1.15,2013-04-04 05:10:00,
2013-04-04 01:20:00,28.7,16.2,30.37,SSE,156,0.0,0.0,59,0.00,,,0.00,0,Wunderground v.1.15,2013-04-04 05:20:00,
2013-04-04 01:25:00,28.7,16.2,30.37,SSE,156,0.0,0.0,59,0.00,,,0.00,0,Wunderground v.1.15,2013-04-04 05:25:00,
2013-04-04 01:35:00,28.2,16.8,30.37,SSE,156,0.0,0.0,62,0.00,,,0.00,0,Wunderground v.1.15,2013-04-04 05:35:00,
2013-04-04 01:45:00,27.8,16.5,30.37,SSE,156,0.0,0.0,62,0.00,,,0.00,0,Wunderground v.1.15,2013-04-04 05:45:00,
2013-04-04 01:50:00,27.7,16.7,30.37,SSE,156,0.0,0.0,63,0.00,,,0.00,0,Wunderground v.1.15,2013-04-04 05:50:00,
2013-04-04 02:00:00,28.6,16.8,30.37,SSE,157,1.0,1.0,61,0.00,,,0.00,0,Wunderground v.1.15,2013-04-04 06:00:00,
2013-04-04 02:10:00,29.8,16.8,30.37,SSE,157,0.0,1.0,58,0.00,,,0.00,0,Wunderground v.1.15,2013-04-04 06:10:00,
2013-04-04 02:15:00,30.1,17.1,30.37,SSE,156,1.0,1.0,58,0.00,,,0.00,0,Wunderground v.1.15,2013-04-04 06:15:00,
2013-04-04 02:20:00,30.1,17.1,30.36,SSE,157,1.0,2.0,58,0.00,,,0.00,0,Wunderground v.1.15,2013-04-04 06:20:00,
2013-04-04 02:30:00,30.2,17.2,30.36,SSE,157,0.0,1.0,58,0.00,,,0.00,0,Wunderground v.1.15,2013-04-04 06:30:00,
2013-04-04 02:40:00,30.5,17.5,30.36,SSE,156,1.0,1.0,58,0.00,,,0.00,0,Wunderground v.1.15,2013-04-04 06:40:00,
2013-04-04 02:50:00,30.3,17.7,30.36,SSE,156,0.0,0.0,59,0.00,,,0.00,0,Wunderground v.1.15,2013-04-04 06:50:00,
2013-04-04 03:00:00,30.1,17.5,30.35,SSE,156,0.0,0.0,59,0.00,,,0.00,0,Wunderground v.1.15,2013-04-04 07:00:00,
2013-04-04 03:10:00,29.9,17.7,30.35,SSE,156,0.0,0.0,60,0.00,,,0.00,0,Wunderground v.1.15,2013-04-04 07:10:00,
2013-04-04 03:20:00,29.4,17.6,30.35,SSE,156,0.0,0.0,61,0.00,,,0.00,0,Wunderground v.1.15,2013-04-04 07:20:00,
2013-04-04 03:25:00,29.2,17.8,30.35,SSE,156,0.0,0.0,62,0.00,,,0.00,0,Wunderground v.1.15,2013-04-04 07:25:00,
2013-04-04 03:30:00,28.9,17.9,30.35,SSE,156,0.0,0.0,63,0.00,,,0.00,0,Wunderground v.1.15,2013-04-04 07:30:00,
2013-04-04 03:40:00,28.3,18.0,30.34,SSE,156,0.0,0.0,65,0.00,,,0.00,0,Wunderground v.1.15,2013-04-04 07:40:00,
2013-04-04 03:50:00,27.8,18.3,30.34,SSE,156,0.0,0.0,67,0.00,,,0.00,0,Wunderground v.1.15,2013-04-04 07:50:00,
2013-04-04 03:55:00,27.6,18.1,30.34,SSE,156,0.0,0.0,67,0.00,,,0.00,0,Wunderground v.1.15,2013-04-04 07:55:00,
2013-04-04 04:05:00,27.2,18.0,30.34,SSE,156,0.0,0.0,68,0.00,,,0.00,0,Wunderground v.1.15,2013-04-04 08:05:00,
2013-04-04 04:15:00,26.9,18.1,30.34,SSE,156,0.0,0.0,69,0.00,,,0.00,0,Wunderground v.1.15,2013-04-04 08:15:00,
2013-04-04 04:25:00,26.5,18.4,30.33,SSE,156,0.0,0.0,71,0.00,,,0.00,0,Wunderground v.1.15,2013-04-04 08:25:00,
2013-04-04 04:35:00,26.2,18.4,30.33,SSE,156,0.0,0.0,72,0.00,,,0.00,0,Wunderground v.1.15,2013-04-04 08:35:00,
2013-04-04 04:45:00,26.0,18.5,30.33,SSE,156,0.0,0.0,73,0.00,,,0.00,0,Wunderground v.1.15,2013-04-04 08:45:00,
2013-04-04 04:50:00,25.9,18.4,30.33,SSE,156,0.0,0.0,73,0.00,,,0.00,0,Wunderground v.1.15,2013-04-04 08:50:00,
2013-04-04 05:00:00,25.5,18.7,30.33,SSE,156,0.0,0.0,75,0.00,,,0.00,0,Wunderground v.1.15,2013-04-04 09:00:00,
2013-04-04 05:10:00,25.1,18.6,30.33,SSE,156,0.0,0.0,76,0.00,,,0.00,0,Wunderground v.1.15,2013-04-04 09:10:00,
2013-04-04 05:20:00,24.7,18.2,30.32,SSE,156,0.0,0.0,76,0.00,,,0.00,0,Wunderground v.1.15,2013-04-04 09:20:00,
2013-04-04 05:25:00,24.5,18.3,30.32,SSE,156,0.0,0.0,77,0.00,,,0.00,0,Wunderground v.1.15,2013-04-04 09:25:00,
2013-04-04 05:35:00,24.2,18.3,30.31,SSE,156,0.0,0.0,78,0.00,,,0.00,0,Wunderground v.1.15,2013-04-04 09:35:00,
2013-04-04 05:45:00,23.9,18.6,30.31,SSE,156,0.0,0.0,80,0.00,,,0.00,0,Wunderground v.1.15,2013-04-04 09:45:00,
2013-04-04 05:50:00,23.8,18.5,30.31,SSE,156,0.0,0.0,80,0.00,,,0.00,0,Wunderground v.1.15,2013-04-04 09:50:00,
2013-04-04 05:55:00,23.6,18.3,30.31,SSE,156,0.0,0.0,80,0.00,,,0.00,0,Wunderground v.1.15,2013-04-04 09:55:00,
2013-04-04 06:00:00,23.5,18.5,30.31,SSE,156,0.0,0.0,81,0.00,,,0.00,0,Wunderground v.1.15,2013-04-04 10:00:00,
2013-04-04 06:10:00,23.3,18.3,30.30,SSE,156,0.0,0.0,81,0.00,,,0.00,0,Wunderground v.1.15,2013-04-04 10:10:00,
2013-04-04 06:15:00,23.3,18.6,30.30,SSE,156,0.0,0.0,82,0.00,,,0.00,0,Wunderground v.1.15,2013-04-04 10:15:00,
2013-04-04 06:25:00,23.4,18.7,30.30,SSE,156,0.0,0.0,82,0.00,,,0.00,0,Wunderground v.1.15,2013-04-04 10:25:00,
2013-04-04 06:35:00,23.3,18.6,30.29,SSE,156,0.0,0.0,82,0.00,,,0.00,0,Wunderground v.1.15,2013-04-04 10:35:00,
2013-04-04 06:45:00,23.3,18.6,30.29,SSE,156,0.0,0.0,82,0.00,,,0.00,0,Wunderground v.1.15,2013-04-04 10:45:00,
2013-04-04 06:55:00,23.3,18.6,30.29,SSE,156,0.0,0.0,82,0.00,,,0.00,0,Wunderground v.1.15,2013-04-04 10:55:00,
2013-04-04 07:10:00,23.3,18.9,30.29,SSE,156,0.0,0.0,83,0.00,,,0.00,0,Wunderground v.1.15,2013-04-04 11:10:00,
2013-04-04 07:15:00,23.3,18.9,30.29,SSE,156,0.0,0.0,83,0.00,,,0.00,0,Wunderground v.1.15,2013-04-04 11:15:00,
2013-04-04 07:25:00,23.2,19.1,30.29,SSE,156,0.0,0.0,84,0.00,,,0.00,7,Wunderground v.1.15,2013-04-04 11:25:00,
2013-04-04 07:30:00,23.2,19.1,30.29,SSE,156,0.0,0.0,84,0.00,,,0.00,11,Wunderground v.1.15,2013-04-04 11:30:00,
2013-04-04 07:35:00,23.2,19.1,30.28,SSE,156,0.0,0.0,84,0.00,,,0.00,16,Wunderground v.1.15,2013-04-04 11:35:00,
2013-04-04 07:40:00,23.1,19.0,30.28,SSE,156,0.0,0.0,84,0.00,,,0.00,23,Wunderground v.1.15,2013-04-04 11:40:00,
2013-04-04 08:00:00,23.8,20.2,30.28,SSE,156,0.0,0.0,86,0.00,,,0.00,56,Wunderground v.1.15,2013-04-04 12:00:00,
2013-04-04 08:10:00,24.5,20.6,30.28,SSE,156,0.0,0.0,85,0.00,,,0.00,65,Wunderground v.1.15,2013-04-04 12:10:00,
2013-04-04 08:20:00,25.2,21.0,30.27,SSE,156,0.0,0.0,84,0.00,,,0.00,79,Wunderground v.1.15,2013-04-04 12:20:00,
2013-04-04 08:25:00,25.5,21.3,30.27,SSE,156,1.0,2.0,84,0.00,,,0.00,97,Wunderground v.1.15,2013-04-04 12:25:00,
2013-04-04 08:35:00,26.5,21.5,30.27,ESE,102,3.0,3.0,81,0.00,,,0.00,141,Wunderground v.1.15,2013-04-04 12:35:00,
2013-04-04 08:45:00,27.5,21.2,30.27,ESE,103,2.0,4.0,77,0.00,,,0.00,186,Wunderground v.1.15,2013-04-04 12:45:00,
2013-04-04 08:55:00,28.6,22.0,30.26,East,87,2.0,3.0,76,0.00,,,0.00,216,Wunderground v.1.15,2013-04-04 12:55:00,
2013-04-04 09:00:00,29.1,21.8,30.26,East,92,3.0,4.0,74,0.00,,,0.00,274,Wunderground v.1.15,2013-04-04 13:00:00,
2013-04-04 09:10:00,30.4,22.4,30.26,East,94,3.0,3.0,72,0.00,,,0.00,267,Wunderground v.1.15,2013-04-04 13:10:00,
2013-04-04 09:20:00,31.6,22.2,30.26,SSE,158,2.0,2.0,68,0.00,,,0.00,265,Wunderground v.1.15,2013-04-04 13:20:00,
2013-04-04 09:25:00,32.1,22.4,30.26,South,179,2.0,2.0,67,0.00,,,0.00,316,Wunderground v.1.15,2013-04-04 13:25:00,
2013-04-04 09:35:00,33.0,22.5,30.25,South,178,3.0,3.0,65,0.00,,,0.00,338,Wunderground v.1.15,2013-04-04 13:35:00,
2013-04-04 09:45:00,34.1,23.2,30.25,South,174,3.0,4.0,64,0.00,,,0.00,427,Wunderground v.1.15,2013-04-04 13:45:00,
2013-04-04 09:55:00,35.4,22.9,30.24,South,184,4.0,4.0,60,0.00,,,0.00,394,Wunderground v.1.15,2013-04-04 13:55:00,
2013-04-04 10:10:00,37.2,23.4,30.23,SSW,201,3.0,5.0,57,0.00,,,0.00,533,Wunderground v.1.15,2013-04-04 14:10:00,
2013-04-04 10:20:00,38.2,23.0,30.23,SSE,157,4.0,4.0,54,0.00,,,0.00,550,Wunderground v.1.15,2013-04-04 14:20:00,
2013-04-04 10:30:00,38.9,23.2,30.23,South,188,4.0,5.0,53,0.00,,,0.00,533,Wunderground v.1.15,2013-04-04 14:30:00,
2013-04-04 10:35:00,39.1,22.9,30.22,SE,144,4.0,5.0,52,0.00,,,0.00,580,Wunderground v.1.15,2013-04-04 14:35:00,
2013-04-04 10:45:00,40.1,22.9,30.22,SSE,155,4.0,7.0,50,0.00,,,0.00,645,Wunderground v.1.15,2013-04-04 14:45:00,
2013-04-04 10:55:00,41.1,22.9,30.22,South,184,5.0,6.0,48,0.00,,,0.00,675,Wunderground v.1.15,2013-04-04 14:55:00,
2013-04-04 11:00:00,41.5,22.2,30.22,South,187,5.0,5.0,46,0.00,,,0.00,661,Wunderground v.1.15,2013-04-04 15:00:00,
2013-04-04 11:10:00,42.4,21.5,30.22,South,189,4.0,4.0,43,0.00,,,0.00,613,Wunderground v.1.15,2013-04-04 15:10:00,
2013-04-04 11:20:00,42.9,20.8,30.22,SSW,194,5.0,5.0,41,0.00,,,0.00,703,Wunderground v.1.15,2013-04-04 15:20:00,
2013-04-04 11:30:00,43.8,19.8,30.21,South,175,4.0,5.0,38,0.00,,,0.00,698,Wunderground v.1.15,2013-04-04 15:30:00,
2013-04-04 11:40:00,44.7,19.3,30.20,SSE,155,3.0,3.0,36,0.00,,,0.00,763,Wunderground v.1.15,2013-04-04 15:40:00,
2013-04-04 11:45:00,45.0,20.3,30.20,South,187,3.0,3.0,37,0.00,,,0.00,742,Wunderground v.1.15,2013-04-04 15:45:00,
2013-04-04 11:55:00,45.5,19.4,30.20,SSE,155,2.0,2.0,35,0.00,,,0.00,780,Wunderground v.1.15,2013-04-04 15:55:00,
2013-04-04 12:05:00,46.4,19.5,30.20,SSE,162,3.0,3.0,34,0.00,,,0.00,802,Wunderground v.1.15,2013-04-04 16:05:00,
2013-04-04 12:10:00,46.7,19.8,30.19,East,94,3.0,5.0,34,0.00,,,0.00,788,Wunderground v.1.15,2013-04-04 16:10:00,
2013-04-04 12:15:00,47.0,21.4,30.19,ESE,107,4.0,5.0,36,0.00,,,0.00,803,Wunderground v.1.15,2013-04-04 16:15:00,
2013-04-04 12:25:00,47.3,19.6,30.18,SSW,205,3.0,5.0,33,0.00,,,0.00,788,Wunderground v.1.15,2013-04-04 16:25:00,
2013-04-04 12:35:00,47.5,21.2,30.18,South,188,3.0,4.0,35,0.00,,,0.00,833,Wunderground v.1.15,2013-04-04 16:35:00,
2013-04-04 12:45:00,47.5,19.8,30.17,South,190,3.0,4.0,33,0.00,,,0.00,847,Wunderground v.1.15,2013-04-04 16:45:00,
2013-04-04 12:55:00,48.2,21.1,30.17,South,179,2.0,2.0,34,0.00,,,0.00,816,Wunderground v.1.15,2013-04-04 16:55:00,
2013-04-04 13:05:00,49.1,20.5,30.17,SSE,166,3.0,3.0,32,0.00,,,0.00,854,Wunderground v.1.15,2013-04-04 17:05:00,
2013-04-04 13:10:00,49.4,19.2,30.16,South,173,2.0,5.0,30,0.00,,,0.00,877,Wunderground v.1.15,2013-04-04 17:10:00,
2013-04-04 13:20:00,49.4,20.0,30.15,South,171,3.0,3.0,31,0.00,,,0.00,867,Wunderground v.1.15,2013-04-04 17:20:00,
2013-04-04 13:30:00,49.6,20.2,30.14,South,183,2.0,2.0,31,0.00,,,0.00,837,Wunderground v.1.15,2013-04-04 17:30:00,
2013-04-04 13:35:00,50.0,20.5,30.14,South,188,2.0,2.0,31,0.00,,,0.00,861,Wunderground v.1.15,2013-04-04 17:35:00,
2013-04-04 13:45:00,50.7,19.6,30.13,South,189,3.0,4.0,29,0.00,,,0.00,784,Wunderground v.1.15,2013-04-04 17:45:00,
2013-04-04 14:00:00,50.6,21.0,30.13,SW,218,3.0,3.0,31,0.00,,,0.00,830,Wunderground v.1.15,2013-04-04 18:00:00,
2013-04-04 14:10:00,51.1,22.2,30.12,SSE,163,2.0,2.0,32,0.00,,,0.00,831,Wunderground v.1.15,2013-04-04 18:10:00,
2013-04-04 14:15:00,51.6,22.7,30.12,SSW,192,3.0,7.0,32,0.00,,,0.00,454,Wunderground v.1.15,2013-04-04 18:15:00,
2013-04-04 14:30:00,51.5,20.2,30.11,East,81,3.0,3.0,29,0.00,,,0.00,858,Wunderground v.1.15,2013-04-04 18:30:00,
2013-04-04 14:35:00,51.5,21.0,30.10,WSW,256,3.0,8.0,30,0.00,,,0.00,837,Wunderground v.1.15,2013-04-04 18:35:00,
2013-04-04 14:45:00,52.2,20.0,30.10,South,186,3.0,4.0,28,0.00,,,0.00,831,Wunderground v.1.15,2013-04-04 18:45:00,
2013-04-04 14:55:00,53.2,20.9,30.09,WSW,245,2.0,5.0,28,0.00,,,0.00,749,Wunderground v.1.15,2013-04-04 18:55:00,
2013-04-04 15:05:00,53.3,20.1,30.08,South,189,4.0,5.0,27,0.00,,,0.00,763,Wunderground v.1.15,2013-04-04 19:05:00,
2013-04-04 15:15:00,53.0,19.9,30.08,West,265,3.0,3.0,27,0.00,,,0.00,715,Wunderground v.1.15,2013-04-04 19:15:00,
2013-04-04 15:20:00,53.2,21.7,30.08,WSW,250,3.0,6.0,29,0.00,,,0.00,745,Wunderground v.1.15,2013-04-04 19:20:00,
2013-04-04 15:30:00,53.8,18.7,30.07,SSW,199,4.0,5.0,25,0.00,,,0.00,788,Wunderground v.1.15,2013-04-04 19:30:00,
2013-04-04 15:35:00,53.7,19.6,30.07,WSW,252,4.0,5.0,26,0.00,,,0.00,763,Wunderground v.1.15,2013-04-04 19:35:00,
2013-04-04 15:45:00,53.9,19.8,30.06,SSW,206,4.0,6.0,26,0.00,,,0.00,745,Wunderground v.1.15,2013-04-04 19:45:00,
2013-04-04 15:55:00,54.4,20.2,30.06,SSW,205,3.0,4.0,26,0.00,,,0.00,696,Wunderground v.1.15,2013-04-04 19:55:00,
2013-04-04 16:05:00,54.7,21.3,30.05,WSW,250,4.0,5.0,27,0.00,,,0.00,710,Wunderground v.1.15,2013-04-04 20:05:00,
2013-04-04 16:10:00,54.8,21.4,30.05,WSW,242,3.0,5.0,27,0.00,,,0.00,652,Wunderground v.1.15,2013-04-04 20:10:00,
2013-04-04 16:20:00,55.2,21.8,30.04,WSW,250,4.0,7.0,27,0.00,,,0.00,675,Wunderground v.1.15,2013-04-04 20:20:00,
2013-04-04 16:25:00,55.1,21.7,30.04,SW,217,5.0,7.0,27,0.00,,,0.00,557,Wunderground v.1.15,2013-04-04 20:25:00,
2013-04-04 16:35:00,55.1,19.9,30.03,SSW,211,4.0,6.0,25,0.00,,,0.00,628,Wunderground v.1.15,2013-04-04 20:35:00,
2013-04-04 16:45:00,55.5,20.2,30.03,WSW,253,4.0,7.0,25,0.00,,,0.00,626,Wunderground v.1.15,2013-04-04 20:45:00,
2013-04-04 16:55:00,55.5,19.2,30.03,SW,236,6.0,6.0,24,0.00,,,0.00,578,Wunderground v.1.15,2013-04-04 20:55:00,
2013-04-04 17:05:00,55.9,20.5,30.03,SW,232,4.0,5.0,25,0.00,,,0.00,512,Wunderground v.1.15,2013-04-04 21:05:00,
2013-04-04 17:15:00,56.4,21.0,30.02,WSW,242,4.0,4.0,25,0.00,,,0.00,480,Wunderground v.1.15,2013-04-04 21:15:00,
2013-04-04 17:25:00,56.3,18.9,30.02,West,260,4.0,4.0,23,0.00,,,0.00,476,Wunderground v.1.15,2013-04-04 21:25:00,
2013-04-04 17:35:00,56.7,20.3,30.01,SW,221,4.0,6.0,24,0.00,,,0.00,446,Wunderground v.1.15,2013-04-04 21:35:00,
2013-04-04 17:40:00,56.6,20.2,30.02,WSW,258,5.0,5.0,24,0.00,,,0.00,420,Wunderground v.1.15,2013-04-04 21:40:00,
2013-04-04 17:50:00,56.5,21.1,30.01,NW,313,4.0,5.0,25,0.00,,,0.00,378,Wunderground v.1.15,2013-04-04 21:50:00,
2013-04-04 18:05:00,56.3,21.8,30.01,WNW,292,4.0,4.0,26,0.00,,,0.00,383,Wunderground v.1.15,2013-04-04 22:05:00,
2013-04-04 18:15:00,56.6,20.2,30.01,WSW,253,3.0,8.0,24,0.00,,,0.00,346,Wunderground v.1.15,2013-04-04 22:15:00,
2013-04-04 18:25:00,56.4,19.0,30.01,WSW,257,5.0,5.0,23,0.00,,,0.00,297,Wunderground v.1.15,2013-04-04 22:25:00,
2013-04-04 18:35:00,56.7,20.3,30.01,WSW,257,4.0,5.0,24,0.00,,,0.00,271,Wunderground v.1.15,2013-04-04 22:35:00,
2013-04-04 18:45:00,56.2,20.8,30.01,WSW,246,5.0,5.0,25,0.00,,,0.00,234,Wunderground v.1.15,2013-04-04 22:45:00,
2013-04-04 18:55:00,56.2,21.7,30.01,WSW,257,4.0,5.0,26,0.00,,,0.00,190,Wunderground v.1.15,2013-04-04 22:55:00,
2013-04-04 19:00:00,55.9,21.5,30.01,WSW,255,5.0,5.0,26,0.00,,,0.00,153,Wunderground v.1.15,2013-04-04 23:00:00,
2013-04-04 19:05:00,55.8,21.4,30.01,WSW,246,5.0,7.0,26,0.00,,,0.00,139,Wunderground v.1.15,2013-04-04 23:05:00,
2013-04-04 19:15:00,55.5,21.1,30.01,WSW,251,4.0,5.0,26,0.00,,,0.00,114,Wunderground v.1.15,2013-04-04 23:15:00,
2013-04-04 19:25:00,55.0,21.6,30.01,WSW,257,4.0,4.0,27,0.00,,,0.00,40,Wunderground v.1.15,2013-04-04 23:25:00,
2013-04-04 19:35:00,54.2,21.8,30.01,WSW,255,4.0,7.0,28,0.00,,,0.00,28,Wunderground v.1.15,2013-04-04 23:35:00,
2013-04-04 19:45:00,53.6,21.2,30.01,West,259,4.0,5.0,28,0.00,,,0.00,21,Wunderground v.1.15,2013-04-04 23:45:00,
2013-04-04 19:55:00,53.0,20.7,30.01,WSW,254,3.0,4.0,28,0.00,,,0.00,14,Wunderground v.1.15,2013-04-04 23:55:00,
2013-04-04 20:05:00,52.1,20.8,30.00,West,261,4.0,5.0,29,0.00,,,0.00,7,Wunderground v.1.15,2013-04-05 00:05:00,
2013-04-04 20:20:00,50.4,20.1,30.00,WSW,258,2.0,2.0,30,0.00,,,0.00,0,Wunderground v.1.15,2013-04-05 00:20:00,
2013-04-04 20:30:00,49.5,21.5,30.00,WSW,258,1.0,1.0,33,0.00,,,0.00,0,Wunderground v.1.15,2013-04-05 00:30:00,
2013-04-04 20:35:00,49.0,21.1,30.00,WSW,258,0.0,1.0,33,0.00,,,0.00,0,Wunderground v.1.15,2013-04-05 00:35:00,
2013-04-04 20:50:00,47.4,21.7,30.00,WSW,258,0.0,1.0,36,0.00,,,0.00,0,Wunderground v.1.15,2013-04-05 00:50:00,
2013-04-04 21:00:00,46.6,21.0,30.00,WSW,258,0.0,1.0,36,0.00,,,0.00,0,Wunderground v.1.15,2013-04-05 01:00:00,
2013-04-04 21:10:00,46.0,21.8,30.00,WSW,258,0.0,0.0,38,0.00,,,0.00,0,Wunderground v.1.15,2013-04-05 01:10:00,
2013-04-04 21:15:00,45.9,21.7,30.00,WSW,258,0.0,2.0,38,0.00,,,0.00,0,Wunderground v.1.15,2013-04-05 01:15:00,
2013-04-04 21:25:00,45.6,22.6,30.00,WSW,258,1.0,1.0,40,0.00,,,0.00,0,Wunderground v.1.15,2013-04-05 01:25:00,
2013-04-04 21:35:00,44.7,23.0,30.01,WSW,258,0.0,0.0,42,0.00,,,0.00,0,Wunderground v.1.15,2013-04-05 01:35:00,
2013-04-04 21:45:00,44.1,23.0,30.01,WSW,258,0.0,0.0,43,0.00,,,0.00,0,Wunderground v.1.15,2013-04-05 01:45:00,
2013-04-04 21:55:00,43.5,23.5,30.01,WSW,258,0.0,0.0,45,0.00,,,0.00,0,Wunderground v.1.15,2013-04-05 01:55:00,
2013-04-04 22:00:00,43.2,23.8,30.01,WSW,258,0.0,0.0,46,0.00,,,0.00,0,Wunderground v.1.15,2013-04-05 02:00:00,
2013-04-04 22:10:00,42.5,23.7,30.01,WSW,258,0.0,0.0,47,0.00,,,0.00,0,Wunderground v.1.15,2013-04-05 02:10:00,
2013-04-04 22:20:00,41.9,23.1,30.00,WSW,258,0.0,0.0,47,0.00,,,0.00,0,Wunderground v.1.15,2013-04-05 02:20:00,
2013-04-04 22:30:00,41.3,23.1,30.00,WSW,258,0.0,0.0,48,0.00,,,0.00,0,Wunderground v.1.15,2013-04-05 02:30:00,
2013-04-04 22:35:00,41.0,22.8,30.00,WSW,258,0.0,0.0,48,0.00,,,0.00,0,Wunderground v.1.15,2013-04-05 02:35:00,
2013-04-04 22:45:00,40.6,23.4,30.00,WSW,258,0.0,0.0,50,0.00,,,0.00,0,Wunderground v.1.15,2013-04-05 02:45:00,
2013-04-04 22:50:00,40.6,23.4,30.00,WSW,258,0.0,0.0,50,0.00,,,0.00,0,Wunderground v.1.15,2013-04-05 02:50:00,
2013-04-04 23:00:00,40.3,23.6,30.00,WSW,258,0.0,0.0,51,0.00,,,0.00,0,Wunderground v.1.15,2013-04-05 03:00:00,
2013-04-04 23:10:00,40.0,23.3,30.00,WSW,258,0.0,0.0,51,0.00,,,0.00,0,Wunderground v.1.15,2013-04-05 03:10:00,
2013-04-04 23:15:00,39.9,23.7,29.99,WSW,258,0.0,0.0,52,0.00,,,0.00,0,Wunderground v.1.15,2013-04-05 03:15:00,
2013-04-04 23:25:00,39.5,24.2,29.99,WSW,258,0.0,1.0,54,0.00,,,0.00,0,Wunderground v.1.15,2013-04-05 03:25:00,
2013-04-04 23:35:00,38.9,24.9,29.99,WSW,258,0.0,0.0,57,0.00,,,0.00,0,Wunderground v.1.15,2013-04-05 03:35:00,
2013-04-04 23:45:00,38.3,24.8,29.99,WSW,258,0.0,0.0,58,0.00,,,0.00,0,Wunderground v.1.15,2013-04-05 03:45:00,
2013-04-04 23:55:00,38.2,25.1,29.99,WSW,258,0.0,0.0,59,0.00,,,0.00,0,Wunderground v.1.15,2013-04-05 03:55:00,